Piney Bluff, Georgia
Current Conditions -  °F | °C
As of 11:53 PM on Thursday 27 Nov 2014 (Local Time) from KSSI Reporting Station
Clear Clear  
Wind Chill: 38°   Ceiling: Unl
Heat Index: 42°   Visibility: 10mi
Dew Point: 32°   Wind: 6mph
Humidity: 67%   Direction: 320°NW
Pressure: 30.34"   Gusts: NA
Location:  31.0438°N, 81.5786°W
Report Text: KSSI 280453Z AUTO 32005KT 10SM CLR 06/00 A3034 RMK AO2 SLP272 T00560000 401440056
Loading
Personal Weather Stations






























Interactive Weather Map New forecast layout! Learn more

10-Day Weather Forecast

Advertisements
Track Severe Weather on mobile